Time;durP1;ratioP1;P1;durP2;ratioP2;P2;SDS_P1;SDS_P2;PMS_P1;PMS_P2;Temp;Humidity;BMP_temperature;BMP_pressure;BME280_temperature;BME280_humidity;BME280_pressure;Samples;Min_cycle;Max_cycle;Signal;HPM_P1;HPM_P2
2021/06/13 00:00:17;;;;;;;9.52;3.00;;;;;;;;;;5075678;28;20096;-76
2021/06/13 00:02:43;;;;;;;7.85;2.80;;;;;;;;;;5074212;28;20040;-77
2021/06/13 00:05:10;;;;;;;7.15;2.97;;;;;;;;;;5073309;28;20025;-76
2021/06/13 00:07:37;;;;;;;4.68;3.00;;;;;;;;;;5072279;28;20040;-76
2021/06/13 00:10:04;;;;;;;4.88;2.50;;;;;;;;;;5073957;28;20023;-76
2021/06/13 00:12:30;;;;;;;5.90;2.67;;;;;;;;;;5075069;28;20111;-76
2021/06/13 00:14:56;;;;;;;7.57;2.70;;;;;;;;;;5075621;28;20066;-76
2021/06/13 00:17:22;;;;;;;8.63;2.97;;;;;;;;;;5073279;28;20570;-76
2021/06/13 00:19:48;;;;;;;8.50;3.13;;;;;;;;;;5074930;28;20146;-77
2021/06/13 00:22:14;;;;;;;8.07;2.63;;;;;;;;;;5074788;28;20016;-78
2021/06/13 00:24:40;;;;;;;5.05;2.60;;;;;;;;;;5074230;28;20024;-75
2021/06/13 00:27:06;;;;;;;5.53;2.85;;;;;;;;;;5073085;28;20457;-75
2021/06/13 00:29:37;;;;;;;5.85;2.78;;;;;;;;;;5071688;28;20020;-76
2021/06/13 00:32:05;;;;;;;6.80;2.75;;;;;;;;;;5051319;28;20025;-75
2021/06/13 00:34:31;;;;;;;12.70;2.88;;;;;;;;;;5063579;28;20048;-75
2021/06/13 00:36:57;;;;;;;6.65;2.88;;;;;;;;;;5071031;28;20433;-77
2021/06/13 00:39:23;;;;;;;7.40;2.80;;;;;;;;;;5051546;28;20017;-75
2021/06/13 00:41:49;;;;;;;6.90;2.92;;;;;;;;;;5053342;28;20111;-75
2021/06/13 00:44:15;;;;;;;7.07;2.85;;;;;;;;;;5074227;28;20035;-75
2021/06/13 00:46:41;;;;;;;6.90;2.90;;;;;;;;;;5072198;28;20017;-75
2021/06/13 00:49:08;;;;;;;7.47;3.38;;;;;;;;;;5073065;28;20099;-76
2021/06/13 00:51:34;;;;;;;5.67;2.70;;;;;;;;;;5053868;28;20024;-75
2021/06/13 00:54:00;;;;;;;7.70;2.75;;;;;;;;;;5073302;28;20120;-75
2021/06/13 00:56:26;;;;;;;8.20;3.00;;;;;;;;;;5072635;28;20111;-75
2021/06/13 00:58:53;;;;;;;4.32;2.35;;;;;;;;;;5074272;28;20029;-78
2021/06/13 01:01:19;;;;;;;7.78;2.97;;;;;;;;;;5072353;28;20061;-75
2021/06/13 01:03:47;;;;;;;6.45;2.90;;;;;;;;;;5072821;28;20063;-76
2021/06/13 01:06:15;;;;;;;9.35;3.20;;;;;;;;;;5072468;28;20111;-75
2021/06/13 01:08:40;;;;;;;;;;;;;;;;;;5073122;28;20059;-75
2021/06/13 01:11:15;;;;;;;5.28;2.97;;;;;;;;;;5072713;28;20366;-75
2021/06/13 01:13:44;;;;;;;7.75;3.30;;;;;;;;;;5073015;28;20072;-76
2021/06/13 01:16:21;;;;;;;6.82;3.22;;;;;;;;;;5072588;28;20028;-75
2021/06/13 01:18:47;;;;;;;;;;;;;;;;;;5061204;28;20494;-78
2021/06/13 01:21:22;;;;;;;7.07;3.15;;;;;;;;;;5072407;28;19947;-76
2021/06/13 01:23:48;;;;;;;8.48;3.55;;;;;;;;;;5073638;28;20024;-76
2021/06/13 01:26:33;;;;;;;9.00;3.60;;;;;;;;;;5073439;28;20051;-77
2021/06/13 01:29:03;;;;;;;8.70;3.65;;;;;;;;;;5052454;28;20025;-76
2021/06/13 01:31:46;;;;;;;7.25;3.90;;;;;;;;;;5069554;28;20052;-76
2021/06/13 01:34:13;;;;;;;9.07;3.78;;;;;;;;;;5072217;28;20027;-77
2021/06/13 01:36:39;;;;;;;5.45;3.55;;;;;;;;;;5070739;28;20059;-76
2021/06/13 01:39:06;;;;;;;8.95;3.63;;;;;;;;;;5072405;28;20028;-76
2021/06/13 01:41:32;;;;;;;6.03;4.00;;;;;;;;;;5070646;28;20027;-77
2021/06/13 01:43:58;;;;;;;6.47;3.80;;;;;;;;;;5072682;28;20034;-76
2021/06/13 01:46:24;;;;;;;8.10;4.03;;;;;;;;;;5071969;28;20103;-76
2021/06/13 01:48:52;;;;;;;9.55;4.15;;;;;;;;;;5072774;28;20037;-76
2021/06/13 01:51:18;;;;;;;7.53;3.78;;;;;;;;;;5071663;28;20089;-77
2021/06/13 01:53:44;;;;;;;7.40;4.10;;;;;;;;;;5071279;28;20025;-77
2021/06/13 01:56:13;;;;;;;7.13;3.88;;;;;;;;;;5053408;28;20705;-76
2021/06/13 01:58:40;;;;;;;7.72;4.05;;;;;;;;;;5071780;28;20082;-77
2021/06/13 02:01:07;;;;;;;8.70;4.40;;;;;;;;;;5071037;28;20028;-76
2021/06/13 02:03:34;;;;;;;7.00;4.85;;;;;;;;;;5071758;28;20024;-76
2021/06/13 02:06:00;;;;;;;12.38;4.30;;;;;;;;;;5069964;28;20492;-76
2021/06/13 02:08:26;;;;;;;10.50;4.60;;;;;;;;;;5072242;28;20028;-76
2021/06/13 02:10:52;;;;;;;9.35;4.68;;;;;;;;;;5070958;28;20504;-76
2021/06/13 02:13:18;;;;;;;9.55;4.38;;;;;;;;;;5051289;28;20032;-76
2021/06/13 02:15:44;;;;;;;9.65;4.55;;;;;;;;;;5051324;28;20029;-76
2021/06/13 02:18:10;;;;;;;9.30;4.65;;;;;;;;;;5050817;28;20052;-77
2021/06/13 02:20:36;;;;;;;9.55;4.30;;;;;;;;;;5051547;28;20053;-76
2021/06/13 02:23:02;;;;;;;7.63;4.35;;;;;;;;;;5053619;28;20024;-76
2021/06/13 02:25:28;;;;;;;9.73;5.18;;;;;;;;;;5055062;28;20020;-76
2021/06/13 02:28:01;;;;;;;8.45;5.03;;;;;;;;;;5072393;28;20068;-75
2021/06/13 02:30:29;;;;;;;10.80;5.00;;;;;;;;;;5053727;28;20025;-76
2021/06/13 02:32:56;;;;;;;11.95;4.68;;;;;;;;;;5070589;28;20074;-76
2021/06/13 02:35:22;;;;;;;13.10;5.40;;;;;;;;;;5071430;28;20029;-77
2021/06/13 02:37:48;;;;;;;7.28;5.18;;;;;;;;;;5070667;28;20024;-76
2021/06/13 02:40:14;;;;;;;14.32;5.65;;;;;;;;;;5071262;28;20042;-77
2021/06/13 02:42:40;;;;;;;9.48;5.50;;;;;;;;;;5070746;28;20078;-77
2021/06/13 02:45:10;;;;;;;9.32;6.15;;;;;;;;;;5071100;28;20013;-76
2021/06/13 02:47:37;;;;;;;10.52;6.03;;;;;;;;;;5071443;28;20439;-76
2021/06/13 02:50:06;;;;;;;9.13;5.87;;;;;;;;;;5072236;28;20025;-76
2021/06/13 02:52:49;;;;;;;14.23;6.03;;;;;;;;;;5070479;28;20269;-76
2021/06/13 02:55:22;;;;;;;12.65;6.00;;;;;;;;;;5070557;28;20051;-76
2021/06/13 02:58:11;;;;;;;10.25;6.05;;;;;;;;;;5070202;28;20029;-76
2021/06/13 03:00:37;;;;;;;8.90;5.70;;;;;;;;;;5070702;28;20043;-76
2021/06/13 03:03:03;;;;;;;11.00;6.10;;;;;;;;;;5070816;28;20017;-75
2021/06/13 03:05:29;;;;;;;7.50;5.88;;;;;;;;;;5071075;28;20028;-77
2021/06/13 03:07:55;;;;;;;8.85;5.85;;;;;;;;;;5069817;28;20074;-78
2021/06/13 03:10:21;;;;;;;12.82;6.03;;;;;;;;;;5070508;28;20426;-76
2021/06/13 03:12:47;;;;;;;10.73;5.80;;;;;;;;;;5070453;28;20020;-76
2021/06/13 03:15:14;;;;;;;13.32;6.55;;;;;;;;;;5069366;28;20492;-76
2021/06/13 03:17:40;;;;;;;15.07;6.38;;;;;;;;;;5068807;28;20056;-76
2021/06/13 03:20:06;;;;;;;9.98;6.13;;;;;;;;;;5068350;28;20104;-76
2021/06/13 03:22:33;;;;;;;8.82;5.90;;;;;;;;;;5068690;28;20013;-76
2021/06/13 03:24:59;;;;;;;11.25;5.90;;;;;;;;;;5069592;28;20021;-77
2021/06/13 03:27:25;;;;;;;10.38;6.05;;;;;;;;;;5069396;28;20478;-76
2021/06/13 03:29:51;;;;;;;14.65;6.20;;;;;;;;;;5070414;28;20472;-78
2021/06/13 03:32:17;;;;;;;10.43;5.80;;;;;;;;;;5069098;28;20020;-76
2021/06/13 03:34:43;;;;;;;9.52;6.20;;;;;;;;;;5069903;28;20020;-76
2021/06/13 03:37:10;;;;;;;12.00;6.35;;;;;;;;;;5068840;28;20322;-76
2021/06/13 03:39:36;;;;;;;8.80;6.43;;;;;;;;;;5068817;28;20058;-77
2021/06/13 03:42:02;;;;;;;9.07;5.82;;;;;;;;;;5069603;28;20016;-76
2021/06/13 03:44:28;;;;;;;10.38;6.22;;;;;;;;;;5070215;28;20381;-77
2021/06/13 03:46:54;;;;;;;7.57;6.00;;;;;;;;;;5069638;28;20359;-76
2021/06/13 03:49:20;;;;;;;11.88;6.78;;;;;;;;;;5069583;28;20032;-76
2021/06/13 03:51:46;;;;;;;8.80;6.18;;;;;;;;;;5071029;28;20532;-76
2021/06/13 03:54:13;;;;;;;8.75;6.35;;;;;;;;;;5070525;28;20048;-76
2021/06/13 03:56:52;;;;;;;12.32;6.68;;;;;;;;;;5052681;28;20025;-74
2021/06/13 03:59:19;;;;;;;11.00;6.60;;;;;;;;;;5052237;28;20039;-74
2021/06/13 04:01:45;;;;;;;9.27;6.32;;;;;;;;;;5069244;28;20104;-74
2021/06/13 04:04:11;;;;;;;13.80;6.95;;;;;;;;;;5053719;28;20479;-74
2021/06/13 04:06:38;;;;;;;11.23;7.07;;;;;;;;;;5069421;28;20027;-74
2021/06/13 04:09:04;;;;;;;13.13;6.63;;;;;;;;;;5068437;28;20028;-74
2021/06/13 04:11:30;;;;;;;14.05;6.75;;;;;;;;;;5069465;28;20028;-74
2021/06/13 04:13:56;;;;;;;12.48;6.18;;;;;;;;;;5052646;28;20029;-74
2021/06/13 04:16:22;;;;;;;9.90;6.07;;;;;;;;;;5069275;28;20029;-74
2021/06/13 04:18:48;;;;;;;12.33;7.27;;;;;;;;;;5069490;28;20028;-74
2021/06/13 04:21:14;;;;;;;14.00;6.85;;;;;;;;;;5051660;28;20028;-74
2021/06/13 04:23:42;;;;;;;11.07;6.82;;;;;;;;;;5069195;28;20473;-74
2021/06/13 04:26:08;;;;;;;10.38;6.63;;;;;;;;;;5068895;28;20069;-74
2021/06/13 04:28:34;;;;;;;11.50;7.40;;;;;;;;;;5071230;28;20090;-74
2021/06/13 04:31:03;;;;;;;14.50;7.22;;;;;;;;;;5069899;28;20477;-74
2021/06/13 04:33:32;;;;;;;12.63;7.32;;;;;;;;;;5071557;28;20025;-74
2021/06/13 04:35:58;;;;;;;9.85;6.43;;;;;;;;;;5052283;28;20035;-74
2021/06/13 04:38:24;;;;;;;10.38;6.63;;;;;;;;;;5068839;28;20394;-74
2021/06/13 04:40:50;;;;;;;8.45;6.50;;;;;;;;;;5073256;28;20024;-74
2021/06/13 04:43:17;;;;;;;11.77;7.30;;;;;;;;;;5061275;28;20021;-74
2021/06/13 04:45:43;;;;;;;11.10;7.55;;;;;;;;;;5054757;28;20032;-74
2021/06/13 04:48:09;;;;;;;9.18;6.57;;;;;;;;;;5035795;28;20029;-74
2021/06/13 04:50:35;;;;;;;12.63;7.32;;;;;;;;;;5053776;28;20490;-74
2021/06/13 04:53:01;;;;;;;12.18;7.43;;;;;;;;;;5059389;28;20382;-74
2021/06/13 04:55:37;;;;;;;14.93;7.10;;;;;;;;;;5073068;28;20054;-74
2021/06/13 04:58:38;;;;;;;10.68;6.85;;;;;;;;;;5073849;28;20042;-74
2021/06/13 05:01:04;;;;;;;11.10;7.50;;;;;;;;;;5050012;28;20109;-73
2021/06/13 05:03:30;;;;;;;13.23;7.35;;;;;;;;;;5065711;28;20036;-74
2021/06/13 05:05:57;;;;;;;12.35;7.03;;;;;;;;;;5073794;28;20028;-74
2021/06/13 05:08:23;;;;;;;15.15;7.53;;;;;;;;;;5074450;28;20020;-74
2021/06/13 05:10:49;;;;;;;13.05;7.40;;;;;;;;;;5071318;28;20017;-74
2021/06/13 05:13:18;;;;;;;9.57;7.10;;;;;;;;;;5073902;28;20021;-73
2021/06/13 05:15:44;;;;;;;11.60;7.32;;;;;;;;;;5073261;28;20094;-74
2021/06/13 05:18:10;;;;;;;11.13;7.45;;;;;;;;;;5071899;28;20029;-74
2021/06/13 05:20:37;;;;;;;13.13;7.47;;;;;;;;;;5072050;28;20023;-74
2021/06/13 05:23:04;;;;;;;11.27;7.55;;;;;;;;;;5072923;28;20024;-74
2021/06/13 05:25:33;;;;;;;10.77;8.20;;;;;;;;;;5072210;28;20039;-74
2021/06/13 05:27:59;;;;;;;11.07;7.13;;;;;;;;;;5071588;28;20031;-73
2021/06/13 05:30:28;;;;;;;11.95;6.97;;;;;;;;;;5072210;28;20067;-74
2021/06/13 05:32:54;;;;;;;10.65;7.10;;;;;;;;;;5073801;28;20025;-74
2021/06/13 05:35:20;;;;;;;13.13;7.10;;;;;;;;;;5072807;28;20025;-74
2021/06/13 05:37:46;;;;;;;14.98;7.20;;;;;;;;;;5071193;28;20474;-74
2021/06/13 05:40:13;;;;;;;11.00;6.97;;;;;;;;;;5071193;28;20019;-74
2021/06/13 05:42:41;;;;;;;12.32;7.03;;;;;;;;;;5072394;28;20024;-74
2021/06/13 05:45:08;;;;;;;9.02;6.43;;;;;;;;;;5073449;28;20063;-74
2021/06/13 05:47:34;;;;;;;12.27;6.97;;;;;;;;;;5071535;28;20036;-74
2021/06/13 05:50:00;;;;;;;11.18;6.68;;;;;;;;;;5072280;28;20032;-74
2021/06/13 05:52:26;;;;;;;10.65;7.15;;;;;;;;;;5071440;28;20032;-74
2021/06/13 05:54:56;;;;;;;15.77;7.38;;;;;;;;;;5071601;28;20044;-74
2021/06/13 05:57:22;;;;;;;11.18;6.60;;;;;;;;;;5072782;28;20040;-74
2021/06/13 05:59:48;;;;;;;16.40;6.63;;;;;;;;;;5070401;28;20029;-74
2021/06/13 06:02:14;;;;;;;12.43;6.90;;;;;;;;;;5070463;28;20028;-73
2021/06/13 06:04:40;;;;;;;13.65;6.68;;;;;;;;;;5073187;28;20032;-74
2021/06/13 06:07:07;;;;;;;10.70;5.72;;;;;;;;;;5072019;28;20020;-74
2021/06/13 06:09:33;;;;;;;14.63;6.65;;;;;;;;;;5071637;28;20065;-75
2021/06/13 06:11:59;;;;;;;8.87;5.90;;;;;;;;;;4706040;28;10000541;-75
2021/06/13 06:14:25;;;;;;;10.55;5.80;;;;;;;;;;5057537;28;20029;-75
2021/06/13 06:16:51;;;;;;;9.63;5.70;;;;;;;;;;5059158;28;20074;-74
2021/06/13 06:19:17;;;;;;;11.90;6.05;;;;;;;;;;5056819;28;20083;-74
2021/06/13 06:21:43;;;;;;;10.85;5.78;;;;;;;;;;5055276;28;20016;-74
2021/06/13 06:24:09;;;;;;;13.27;5.93;;;;;;;;;;5056848;28;20017;-74
2021/06/13 06:26:35;;;;;;;15.70;5.85;;;;;;;;;;5048125;28;20028;-74
2021/06/13 06:29:01;;;;;;;9.85;5.53;;;;;;;;;;5057391;28;20025;-74
2021/06/13 06:31:27;;;;;;;10.93;5.03;;;;;;;;;;5059535;28;20032;-74
2021/06/13 06:33:53;;;;;;;9.60;5.07;;;;;;;;;;5059877;28;20028;-74
2021/06/13 06:36:19;;;;;;;14.52;5.80;;;;;;;;;;5055879;28;20033;-74
2021/06/13 06:38:48;;;;;;;11.35;5.10;;;;;;;;;;5054985;28;20099;-75
2021/06/13 06:41:14;;;;;;;11.35;4.93;;;;;;;;;;5055918;28;20024;-74
2021/06/13 06:43:40;;;;;;;10.32;5.38;;;;;;;;;;5057867;28;20075;-74
2021/06/13 06:46:06;;;;;;;12.07;4.80;;;;;;;;;;5055045;28;20032;-74
2021/06/13 06:48:32;;;;;;;9.80;4.60;;;;;;;;;;5056364;28;20056;-74
2021/06/13 06:50:58;;;;;;;16.05;4.97;;;;;;;;;;5056715;28;20024;-76
2021/06/13 06:53:24;;;;;;;10.10;4.68;;;;;;;;;;5058635;28;20059;-74
2021/06/13 06:55:50;;;;;;;9.25;4.45;;;;;;;;;;5056040;28;20036;-74
2021/06/13 06:58:16;;;;;;;11.95;4.68;;;;;;;;;;5040129;28;20036;-74
2021/06/13 07:00:42;;;;;;;11.77;4.65;;;;;;;;;;5054768;28;20040;-75
2021/06/13 07:03:11;;;;;;;9.50;4.50;;;;;;;;;;5054527;28;20017;-75
2021/06/13 07:05:38;;;;;;;8.90;4.07;;;;;;;;;;5057769;28;20013;-75
2021/06/13 07:08:04;;;;;;;11.98;4.68;;;;;;;;;;5055683;28;20492;-75
2021/06/13 07:10:30;;;;;;;12.40;4.27;;;;;;;;;;5055342;28;20036;-76
2021/06/13 07:12:56;;;;;;;11.73;4.05;;;;;;;;;;5053572;28;20112;-76
2021/06/13 07:15:22;;;;;;;11.07;4.60;;;;;;;;;;5055670;28;20032;-75
2021/06/13 07:17:49;;;;;;;8.43;4.38;;;;;;;;;;5037710;28;20024;-75
2021/06/13 07:20:15;;;;;;;11.10;4.13;;;;;;;;;;5053526;28;20024;-75
2021/06/13 07:22:41;;;;;;;9.68;4.30;;;;;;;;;;5056171;28;20039;-75
2021/06/13 07:25:07;;;;;;;8.95;4.15;;;;;;;;;;5054937;28;20045;-75
2021/06/13 07:27:34;;;;;;;11.73;4.10;;;;;;;;;;5056443;28;20082;-76
2021/06/13 07:30:00;;;;;;;11.97;3.93;;;;;;;;;;5055184;28;20064;-75
2021/06/13 07:32:26;;;;;;;8.25;4.03;;;;;;;;;;5054326;28;20032;-75
2021/06/13 07:34:52;;;;;;;10.65;4.30;;;;;;;;;;5057892;28;20040;-74
2021/06/13 07:37:18;;;;;;;9.15;3.88;;;;;;;;;;5055900;28;20040;-75
2021/06/13 07:39:44;;;;;;;12.73;3.92;;;;;;;;;;5055580;28;20039;-75
2021/06/13 07:42:10;;;;;;;9.77;3.85;;;;;;;;;;5056946;28;20031;-75
2021/06/13 07:44:36;;;;;;;8.65;3.50;;;;;;;;;;5056493;28;20524;-75
2021/06/13 07:47:02;;;;;;;9.68;3.80;;;;;;;;;;5046476;28;20576;-76
2021/06/13 07:49:28;;;;;;;12.05;3.80;;;;;;;;;;5040116;28;20521;-75
2021/06/13 07:51:54;;;;;;;9.88;3.60;;;;;;;;;;5059380;28;20110;-76
2021/06/13 07:54:20;;;;;;;8.25;3.50;;;;;;;;;;5055933;28;20033;-74
2021/06/13 07:56:47;;;;;;;8.50;3.50;;;;;;;;;;5053844;28;20107;-74
2021/06/13 07:59:13;;;;;;;8.90;3.80;;;;;;;;;;5050983;28;20039;-74
2021/06/13 08:01:39;;;;;;;7.30;3.53;;;;;;;;;;5054402;28;20017;-75
2021/06/13 08:04:05;;;;;;;10.65;3.47;;;;;;;;;;5056650;28;20021;-74
2021/06/13 08:06:32;;;;;;;8.60;4.10;;;;;;;;;;5034222;28;20072;-74
2021/06/13 08:08:59;;;;;;;13.30;3.67;;;;;;;;;;5054988;28;20060;-74
2021/06/13 08:11:25;;;;;;;9.20;3.70;;;;;;;;;;5056942;28;20021;-74
2021/06/13 08:13:51;;;;;;;11.52;3.80;;;;;;;;;;5054083;28;20036;-74
2021/06/13 08:16:17;;;;;;;13.95;4.72;;;;;;;;;;5061791;28;20857;-75
2021/06/13 08:18:43;;;;;;;8.57;3.63;;;;;;;;;;5059033;28;20032;-74
2021/06/13 08:21:09;;;;;;;10.45;3.60;;;;;;;;;;5062360;28;20052;-74
2021/06/13 08:23:35;;;;;;;9.15;3.88;;;;;;;;;;5063129;28;20455;-74
2021/06/13 08:26:01;;;;;;;13.93;3.70;;;;;;;;;;5057282;28;20036;-77
2021/06/13 08:28:28;;;;;;;10.48;4.15;;;;;;;;;;5056566;28;20394;-74
2021/06/13 08:30:54;;;;;;;7.60;3.80;;;;;;;;;;5049423;28;20032;-75
2021/06/13 08:33:20;;;;;;;9.68;4.03;;;;;;;;;;5060083;28;20060;-75
2021/06/13 08:35:46;;;;;;;9.30;3.85;;;;;;;;;;5057865;28;20029;-74
2021/06/13 08:38:12;;;;;;;10.73;3.67;;;;;;;;;;5055164;28;20149;-75
2021/06/13 08:40:38;;;;;;;13.07;3.80;;;;;;;;;;5044978;28;20043;-75
2021/06/13 08:43:04;;;;;;;9.82;4.40;;;;;;;;;;5057447;28;20013;-75
2021/06/13 08:45:32;;;;;;;9.10;3.85;;;;;;;;;;5048366;28;20440;-74
2021/06/13 08:47:57;;;;;;;;;;;;;;;;;;5056737;28;20032;-76
2021/06/13 08:50:24;;;;;;;8.57;3.77;;;;;;;;;;5058538;28;19917;-74
2021/06/13 08:52:50;;;;;;;10.73;3.30;;;;;;;;;;5060047;28;20036;-75
2021/06/13 08:55:16;;;;;;;10.48;3.70;;;;;;;;;;5042165;28;20162;-75
2021/06/13 08:57:42;;;;;;;8.55;3.50;;;;;;;;;;5047591;28;20036;-75
2021/06/13 09:00:10;;;;;;;8.80;3.30;;;;;;;;;;5062449;28;20125;-75
2021/06/13 09:02:36;;;;;;;9.15;3.30;;;;;;;;;;5058600;28;20032;-75
2021/06/13 09:05:02;;;;;;;8.68;3.28;;;;;;;;;;5053779;28;20029;-74
2021/06/13 09:07:28;;;;;;;7.22;3.20;;;;;;;;;;5058728;28;20017;-75
2021/06/13 09:09:54;;;;;;;7.53;3.42;;;;;;;;;;5061642;28;20694;-75
2021/06/13 09:12:21;;;;;;;11.10;3.40;;;;;;;;;;5058580;28;20028;-75
2021/06/13 09:14:50;;;;;;;12.32;3.45;;;;;;;;;;5055118;28;20504;-74
2021/06/13 09:17:20;;;;;;;9.50;3.38;;;;;;;;;;5059512;28;20016;-75
2021/06/13 09:20:05;;;;;;;9.02;3.38;;;;;;;;;;5060464;28;20537;-75
2021/06/13 09:22:31;;;;;;;10.73;3.65;;;;;;;;;;5063637;28;20040;-76
2021/06/13 09:25:04;;;;;;;10.63;3.63;;;;;;;;;;5056999;28;20032;-75
2021/06/13 09:27:30;;;;;;;10.32;3.33;;;;;;;;;;5056378;28;20040;-76
2021/06/13 09:29:56;;;;;;;11.18;3.15;;;;;;;;;;5042166;28;20090;-74
2021/06/13 09:32:22;;;;;;;7.75;3.20;;;;;;;;;;5058301;28;20104;-75
2021/06/13 09:35:07;;;;;;;6.95;2.97;;;;;;;;;;5057013;28;20128;-75
2021/06/13 09:37:34;;;;;;;10.60;3.35;;;;;;;;;;5057205;28;20061;-75
2021/06/13 09:40:08;;;;;;;8.55;3.30;;;;;;;;;;5060545;28;20032;-77
2021/06/13 09:42:36;;;;;;;8.25;2.97;;;;;;;;;;5059911;28;20095;-75
2021/06/13 09:45:02;;;;;;;10.85;3.20;;;;;;;;;;5042051;28;20027;-75
2021/06/13 09:47:29;;;;;;;7.95;3.17;;;;;;;;;;5059423;28;20032;-76
2021/06/13 09:49:55;;;;;;;10.63;3.42;;;;;;;;;;5058019;28;20059;-75
2021/06/13 09:52:27;;;;;;;6.10;3.00;;;;;;;;;;5039721;28;20086;-76
2021/06/13 09:55:12;;;;;;;6.10;3.00;;;;;;;;;;5058024;28;20056;-76
2021/06/13 09:58:13;;;;;;;6.45;2.90;;;;;;;;;;5039987;28;20876;-76
2021/06/13 10:00:39;;;;;;;9.90;3.15;;;;;;;;;;5049854;28;20037;-75
2021/06/13 10:03:22;;;;;;;8.02;2.92;;;;;;;;;;5059093;28;20370;-75
2021/06/13 10:05:55;;;;;;;5.65;2.78;;;;;;;;;;5058796;28;20051;-75
2021/06/13 10:08:21;;;;;;;6.10;3.00;;;;;;;;;;5040292;28;20043;-76
2021/06/13 10:10:47;;;;;;;7.30;2.97;;;;;;;;;;5058514;28;20035;-75
2021/06/13 10:13:13;;;;;;;7.75;2.90;;;;;;;;;;5047950;28;20413;-76
2021/06/13 10:15:39;;;;;;;6.18;2.90;;;;;;;;;;5061405;28;20036;-77
2021/06/13 10:18:12;;;;;;;6.75;3.00;;;;;;;;;;5061962;28;20169;-76
2021/06/13 10:20:38;;;;;;;7.95;3.22;;;;;;;;;;5061345;28;20033;-76
2021/06/13 10:23:04;;;;;;;6.73;2.90;;;;;;;;;;5055647;28;20059;-74
2021/06/13 10:25:31;;;;;;;6.75;3.00;;;;;;;;;;5040702;28;20029;-76
2021/06/13 10:27:58;;;;;;;7.10;2.80;;;;;;;;;;5054373;28;20060;-75
2021/06/13 10:30:24;;;;;;;6.25;3.33;;;;;;;;;;5057016;28;20021;-75
2021/06/13 10:32:50;;;;;;;7.43;3.20;;;;;;;;;;5040001;28;20068;-75
2021/06/13 10:35:16;;;;;;;6.03;2.85;;;;;;;;;;5045365;28;20012;-74
2021/06/13 10:37:42;;;;;;;7.80;2.92;;;;;;;;;;5036989;28;20024;-75
2021/06/13 10:40:08;;;;;;;6.25;3.00;;;;;;;;;;5055048;28;20162;-75
2021/06/13 10:42:37;;;;;;;8.20;3.20;;;;;;;;;;5055632;28;20020;-75
2021/06/13 10:45:04;;;;;;;7.78;2.60;;;;;;;;;;5040036;28;20028;-76
2021/06/13 10:47:30;;;;;;;8.43;3.08;;;;;;;;;;5054321;28;20032;-76
2021/06/13 10:49:56;;;;;;;7.60;3.03;;;;;;;;;;5055012;28;20021;-75
2021/06/13 10:52:25;;;;;;;10.73;3.20;;;;;;;;;;5055029;28;20250;-76
2021/06/13 10:54:52;;;;;;;9.48;2.97;;;;;;;;;;5055957;28;20121;-75
2021/06/13 10:57:18;;;;;;;6.63;2.75;;;;;;;;;;5056833;28;20031;-76
2021/06/13 10:59:47;;;;;;;8.63;3.50;;;;;;;;;;5054327;28;20560;-75
2021/06/13 11:02:14;;;;;;;6.50;2.83;;;;;;;;;;5055264;28;20048;-74
2021/06/13 11:04:41;;;;;;;6.82;3.15;;;;;;;;;;5054616;28;20537;-75
2021/06/13 11:07:07;;;;;;;7.60;3.10;;;;;;;;;;5052750;28;20044;-75
2021/06/13 11:09:33;;;;;;;4.68;2.72;;;;;;;;;;5055411;28;20121;-75
2021/06/13 11:11:59;;;;;;;7.15;3.20;;;;;;;;;;5053982;28;20103;-75
2021/06/13 11:14:31;;;;;;;6.97;2.75;;;;;;;;;;5054915;28;20084;-74
2021/06/13 11:17:01;;;;;;;8.02;2.88;;;;;;;;;;5056393;28;20021;-75
2021/06/13 11:19:30;;;;;;;7.13;2.90;;;;;;;;;;5059815;28;20029;-74
2021/06/13 11:22:16;;;;;;;6.90;2.90;;;;;;;;;;5040566;28;20119;-75
2021/06/13 11:24:48;;;;;;;8.40;3.03;;;;;;;;;;5054009;28;20070;-75
2021/06/13 11:27:14;;;;;;;4.93;2.80;;;;;;;;;;5055110;28;20028;-75
2021/06/13 11:29:53;;;;;;;5.90;2.67;;;;;;;;;;5054870;28;20021;-75
2021/06/13 11:32:39;;;;;;;6.55;2.80;;;;;;;;;;5055966;28;20076;-75
2021/06/13 11:35:24;;;;;;;7.53;3.10;;;;;;;;;;5054525;28;20033;-75
2021/06/13 11:38:13;;;;;;;7.07;3.08;;;;;;;;;;5053771;28;20119;-75
2021/06/13 11:40:49;;;;;;;6.45;2.72;;;;;;;;;;5047080;28;20173;-75
2021/06/13 11:43:16;;;;;;;10.27;3.20;;;;;;;;;;5056227;28;20056;-76
2021/06/13 11:45:42;;;;;;;;;;;;;;;;;;5058810;28;20512;-75
2021/06/13 11:48:20;;;;;;;7.70;3.00;;;;;;;;;;5058126;28;19913;-76
2021/06/13 11:51:19;;;;;;;7.68;3.03;;;;;;;;;;5059731;28;20032;-75
2021/06/13 11:53:57;;;;;;;7.53;3.05;;;;;;;;;;5057956;28;20028;-75
2021/06/13 11:56:35;;;;;;;7.72;3.10;;;;;;;;;;5058781;28;20033;-75
2021/06/13 11:59:05;;;;;;;5.95;2.78;;;;;;;;;;5059599;28;20053;-75
2021/06/13 12:01:35;;;;;;;6.47;3.33;;;;;;;;;;5062317;28;20462;-74
2021/06/13 12:04:02;;;;;;;5.75;3.10;;;;;;;;;;5061146;28;20033;-75
2021/06/13 12:06:28;;;;;;;7.65;2.75;;;;;;;;;;5058088;28;20016;-75
2021/06/13 12:08:54;;;;;;;5.78;2.88;;;;;;;;;;5058923;28;20040;-76
2021/06/13 12:11:30;;;;;;;5.78;2.97;;;;;;;;;;5058962;28;20016;-75
2021/06/13 12:13:56;;;;;;;7.90;3.00;;;;;;;;;;5059032;28;20055;-75
2021/06/13 12:16:22;;;;;;;7.32;3.10;;;;;;;;;;5044905;28;20547;-75
2021/06/13 12:18:58;;;;;;;9.90;3.15;;;;;;;;;;5060291;28;20060;-75
2021/06/13 12:21:27;;;;;;;6.97;2.83;;;;;;;;;;5058709;28;20024;-74
2021/06/13 12:23:59;;;;;;;7.47;2.88;;;;;;;;;;5063429;28;20446;-75
2021/06/13 12:29:21;;;;;;;6.35;2.80;;;;;;;;;;5061280;28;20059;-75
2021/06/13 12:31:47;;;;;;;6.65;2.75;;;;;;;;;;5058084;28;20048;-75
2021/06/13 12:34:23;;;;;;;9.20;3.35;;;;;;;;;;5058464;28;20025;-75
2021/06/13 12:36:52;;;;;;;7.50;2.70;;;;;;;;;;5041423;28;20017;-75
2021/06/13 12:39:25;;;;;;;6.55;2.60;;;;;;;;;;5058501;28;20029;-75
2021/06/13 12:41:51;;;;;;;5.93;2.90;;;;;;;;;;5056227;28;20043;-76
2021/06/13 12:44:18;;;;;;;7.28;2.83;;;;;;;;;;5057568;28;20025;-75
2021/06/13 12:46:44;;;;;;;6.43;2.80;;;;;;;;;;5047370;28;20771;-75
2021/06/13 12:49:10;;;;;;;7.22;2.85;;;;;;;;;;5059835;28;20557;-75
2021/06/13 12:51:36;;;;;;;6.32;2.80;;;;;;;;;;5057788;28;20497;-75
2021/06/13 12:54:13;;;;;;;5.17;2.90;;;;;;;;;;5056214;28;20025;-75
2021/06/13 12:56:40;;;;;;;5.97;2.70;;;;;;;;;;5057432;28;20781;-75
2021/06/13 12:59:06;;;;;;;5.28;2.78;;;;;;;;;;5040257;28;20509;-75
2021/06/13 13:01:35;;;;;;;6.85;3.30;;;;;;;;;;5040907;28;20111;-75
2021/06/13 13:04:01;;;;;;;7.55;2.90;;;;;;;;;;5057106;28;20090;-75
2021/06/13 13:06:27;;;;;;;7.20;2.95;;;;;;;;;;5057494;28;20016;-76
2021/06/13 13:08:53;;;;;;;6.73;3.03;;;;;;;;;;5057088;28;20060;-75
2021/06/13 13:11:28;;;;;;;7.03;3.22;;;;;;;;;;5057754;28;20020;-77
2021/06/13 13:13:55;;;;;;;7.28;2.80;;;;;;;;;;5057097;28;20029;-75
2021/06/13 13:16:25;;;;;;;10.85;3.20;;;;;;;;;;5055708;28;20028;-75
2021/06/13 13:18:51;;;;;;;5.75;2.60;;;;;;;;;;5062632;28;20041;-75
2021/06/13 13:21:28;;;;;;;6.35;2.65;;;;;;;;;;5058220;28;20040;-75
2021/06/13 13:23:54;;;;;;;5.40;3.05;;;;;;;;;;5056536;28;20070;-75
2021/06/13 13:26:21;;;;;;;7.40;3.28;;;;;;;;;;5057705;28;20033;-75
2021/06/13 13:28:50;;;;;;;7.63;3.28;;;;;;;;;;5058065;28;20427;-76
2021/06/13 13:31:17;;;;;;;5.93;2.78;;;;;;;;;;5059661;28;20035;-75
2021/06/13 13:33:43;;;;;;;;;;;;;;;;;;5057389;28;20108;-76
2021/06/13 13:36:10;;;;;;;9.85;3.40;;;;;;;;;;5054358;28;20091;-76
2021/06/13 13:38:36;;;;;;;4.97;2.60;;;;;;;;;;5046668;28;20041;-75
2021/06/13 13:41:02;;;;;;;5.25;2.67;;;;;;;;;;5054638;28;20123;-74
2021/06/13 13:43:29;;;;;;;9.30;2.47;;;;;;;;;;5054890;28;20066;-76
2021/06/13 13:45:55;;;;;;;4.07;2.05;;;;;;;;;;5055009;28;20013;-75
2021/06/13 13:48:21;;;;;;;6.17;2.57;;;;;;;;;;5056267;28;20556;-75
2021/06/13 13:50:54;;;;;;;4.55;2.20;;;;;;;;;;5060462;28;20494;-76
2021/06/13 13:53:26;;;;;;;5.40;2.28;;;;;;;;;;5057012;28;20032;-75
2021/06/13 13:55:53;;;;;;;6.05;2.40;;;;;;;;;;5056959;28;20033;-77
2021/06/13 13:58:19;;;;;;;5.40;2.47;;;;;;;;;;5054862;28;20033;-77
2021/06/13 14:00:46;;;;;;;4.38;2.20;;;;;;;;;;5037658;28;20272;-76
2021/06/13 14:03:12;;;;;;;6.10;2.17;;;;;;;;;;5053257;28;20577;-76
2021/06/13 14:05:38;;;;;;;5.10;2.27;;;;;;;;;;5053294;28;20265;-76
2021/06/13 14:08:04;;;;;;;5.60;2.30;;;;;;;;;;5055452;28;20029;-76
2021/06/13 14:10:30;;;;;;;6.03;2.08;;;;;;;;;;5057624;28;20340;-75
2021/06/13 14:12:56;;;;;;;5.25;2.25;;;;;;;;;;5057013;28;20619;-75
2021/06/13 14:15:22;;;;;;;5.67;2.20;;;;;;;;;;5055695;28;20021;-75
2021/06/13 14:17:48;;;;;;;5.40;2.33;;;;;;;;;;5056369;28;20028;-76
2021/06/13 14:20:14;;;;;;;5.70;2.38;;;;;;;;;;5056563;28;20123;-75
2021/06/13 14:22:40;;;;;;;5.37;2.30;;;;;;;;;;5056099;28;20029;-75
2021/06/13 14:25:06;;;;;;;4.35;2.17;;;;;;;;;;5059591;28;20368;-75
2021/06/13 14:27:32;;;;;;;5.10;2.30;;;;;;;;;;5056450;28;20020;-75
2021/06/13 14:29:58;;;;;;;4.97;2.57;;;;;;;;;;5052907;28;20258;-75
2021/06/13 14:32:24;;;;;;;5.32;2.30;;;;;;;;;;5055128;28;20769;-75
2021/06/13 14:34:50;;;;;;;6.28;2.20;;;;;;;;;;5057304;28;20028;-75
2021/06/13 14:37:18;;;;;;;3.97;2.20;;;;;;;;;;5054545;28;20070;-75
2021/06/13 14:39:44;;;;;;;5.90;2.33;;;;;;;;;;5056251;28;20120;-75
2021/06/13 14:42:10;;;;;;;5.78;2.47;;;;;;;;;;5055968;28;20075;-76
2021/06/13 14:44:36;;;;;;;5.13;2.15;;;;;;;;;;5055544;28;20039;-75
2021/06/13 14:47:02;;;;;;;4.72;2.28;;;;;;;;;;5054092;28;20031;-75